Flight Track Log - Related Links

Times and Time Zones

All times are in EDT time to prevent confusion due to time zone crossing. See the N7256A flight status page for this flight to view local times or setup timezone preferences in your user account.

Time Position Orientation Groundspeed Altitude Reporting Facility
EDT Latitude Longitude Course Direction KTS MPH feet Rate Location/Type
Mon 12:42:05 PM 42.2425 -83.7106 54° Northeast 108 124 1,900  Level Cleveland Center
Mon 12:43:06 PM 42.2661 -83.6894 33° Northeast 111 128 3,000 931 Climbing Cleveland Center
Mon 12:44:01 PM 42.2842 -83.7100 320° Northwest 118 136 3,700 828 Climbing Cleveland Center
Mon 12:45:02 PM 42.3039 -83.7503 304° West 127 146 4,600 927 Climbing Cleveland Center
Mon 12:46:04 PM 42.3214 -83.7961 297° West 134 154 5,600 616 Climbing Cleveland Center
Mon 12:48:00 PM 42.3852 -83.8688 294° West  Level Estimated
Mon 12:53:48 PM 42.5228 -84.1925 311° West 198 228 10,000  Level Chicago Center
Mon 12:54:50 PM 42.5594 -84.2511 310° West 202 232 10,000  Level Chicago Center
Mon 12:55:00 PM 42.5378 -84.2164 311° West  Level FlightAware Approximate
Mon 12:55:52 PM 42.5939 -84.3050 311° West 195 224 10,000  Level Chicago Center
Mon 12:56:00 PM 42.5662 -84.2606 311° West  Level FlightAware Approximate
Mon 12:56:55 PM 42.6303 -84.3639 310° West 200 230 9,800  Level Chicago Center
Mon 12:57:00 PM 42.5944 -84.3048 311° West  Level FlightAware Approximate
Mon 12:57:57 PM 42.6572 -84.4272 300° West 200 230 10,000  Level Chicago Center
Mon 12:58:00 PM 42.6227 -84.3491 311° West  Level FlightAware Approximate
Mon 12:58:59 PM 42.6950 -84.4794 315° West 196 226 10,000  Level Chicago Center
Mon 12:59:00 PM 42.6509 -84.3934 311° West  Level FlightAware Approximate
Mon 01:00:03 PM 42.7436 -84.5403 317° Northwest 197 227 10,000  Level Chicago Center
Mon 01:01:05 PM 42.7811 -84.5922 315° West 195 224 10,000  Level Chicago Center
Mon 01:02:07 PM 42.8169 -84.6472 312° West 195 224 10,000  Level Chicago Center
Mon 01:03:09 PM 42.8528 -84.7014 312° West 193 222 10,000  Level Chicago Center
Mon 01:04:11 PM 42.8875 -84.7558 311° West 192 221 10,000  Level Chicago Center
Mon 01:05:13 PM 42.9297 -84.8217 311° West 194 223 10,000  Level Chicago Center
Mon 01:06:15 PM 42.9650 -84.8761 312° West 193 222 10,000  Level Chicago Center
Mon 01:07:17 PM 42.9981 -84.9292 310° West 187 215 10,000  Level Chicago Center
Mon 01:08:19 PM 43.0342 -84.9833 312° West 190 219 10,000  Level Chicago Center
Mon 01:09:21 PM 43.0681 -85.0372 311° West 190 219 10,000  Level Chicago Center
Mon 01:10:24 PM 43.1081 -85.1014 311° West 187 215 10,000  Level Chicago Center
Mon 01:12:27 PM 43.1769 -85.2114 311° West 190 219 10,000  Level Minneapolis Center
Mon 01:13:30 PM 43.2117 -85.2653 311° West 190 219 10,000  Level Chicago Center
Mon 01:14:32 PM 43.2453 -85.3172 312° West 186 214 10,000  Level Chicago Center
Mon 01:15:34 PM 43.2861 -85.3792 312° West 183 211 10,000  Level Chicago Center
Mon 01:16:36 PM 43.3197 -85.4344 310° West 188 216 10,000  Level Chicago Center
Mon 01:17:38 PM 43.3525 -85.4897 309° West 188 216 10,000  Level Chicago Center
Mon 01:18:40 PM 43.3858 -85.5453 310° West 189 217 10,000  Level Chicago Center
Mon 01:19:42 PM 43.4203 -85.5981 312° West 187 215 10,000  Level Chicago Center
Mon 01:20:44 PM 43.4553 -85.6478 314° West 182 209 10,000  Level Chicago Center
Mon 01:21:46 PM 43.4972 -85.7114 312° West 187 215 10,000  Level Chicago Center
Mon 01:22:48 PM 43.5306 -85.7636 311° West 184 212 10,000  Level Chicago Center
Mon 01:23:51 PM 43.5650 -85.8167 312° West 186 214 10,000  Level Chicago Center
Mon 01:24:53 PM 43.5978 -85.8672 312° West 180 207 10,000  Level Chicago Center
Mon 01:25:54 PM 43.6297 -85.9219 309° West 183 211 10,000  Level Minneapolis Center
Mon 01:26:56 PM 43.6694 -85.9861 311° West 184 212 10,000  Level Minneapolis Center
Mon 01:27:58 PM 43.7039 -86.0411 311° West 188 216 10,000  Level Minneapolis Center
Mon 01:29:00 PM 43.7364 -86.0944 310° West 185 213 10,000  Level Minneapolis Center
Mon 01:30:02 PM 43.7703 -86.1497 310° West 186 214 10,000  Level Minneapolis Center
Mon 01:31:04 PM 43.7983 -86.2061 305° West 184 212 10,000  Level Minneapolis Center
Mon 01:32:07 PM 43.8117 -86.2761 285° West 185 213 10,000  Level Minneapolis Center
Mon 01:33:09 PM 43.8381 -86.3542 295° West 187 215 10,000  Level Minneapolis Center
Mon 01:34:11 PM 43.8586 -86.4186 294° West 185 213 10,000  Level Chicago Center
Mon 01:35:13 PM 43.8800 -86.4806 296° West 180 207 10,000  Level Chicago Center
Mon 01:36:15 PM 43.8989 -86.5456 292° West 181 208 10,000  Level Minneapolis Center
Mon 01:37:17 PM 43.9189 -86.6083 294° West 180 207 10,000  Level Minneapolis Center
Mon 01:38:19 PM 43.9436 -86.6828 295° West 178 205 10,000  Level Minneapolis Center
Mon 01:39:21 PM 43.9631 -86.7456 293° West 178 205 10,000  Level Minneapolis Center
Mon 01:40:23 PM 43.9833 -86.8100 294° West 181 208 10,000  Level Minneapolis Center
Mon 01:41:25 PM 44.0028 -86.8744 293° West 181 208 10,000  Level Minneapolis Center
Mon 01:42:27 PM 44.0228 -86.9383 294° West 180 207 10,000  Level Minneapolis Center
Mon 01:43:29 PM 44.0433 -87.0022 294° West 181 208 10,000  Level Minneapolis Center
Mon 01:44:31 PM 44.0678 -87.0800 294° West 184 212 10,000  Level Minneapolis Center
Mon 01:45:34 PM 44.0883 -87.1453 294° West 184 212 10,000  Level Minneapolis Center
Mon 01:46:36 PM 44.1089 -87.2089 294° West 182 209 10,000  Level Minneapolis Center
Mon 01:47:38 PM 44.1283 -87.2778 291° West 181 208 10,000  Level Minneapolis Center
Mon 01:48:40 PM 44.1486 -87.3408 294° West 179 206 10,000  Level Minneapolis Center
Mon 01:49:42 PM 44.1689 -87.4061 293° West 182 209 10,000  Level Minneapolis Center
Mon 01:50:44 PM 44.2086 -87.4639 314° West 182 209 10,000  Level Minneapolis Center
Mon 01:51:46 PM 44.2569 -87.4878 341° North 182 209 10,000  Level Minneapolis Center
Mon 01:52:48 PM 44.3047 -87.5114 341° North 182 209 10,000  Level Minneapolis Center
Mon 01:53:50 PM 44.3539 -87.5297 345° North 183 211 10,000  Level Minneapolis Center
Mon 01:54:52 PM 44.4033 -87.5472 346° North 183 211 10,000  Level Minneapolis Center
Mon 01:55:54 PM 44.4611 -87.5669 346° North 183 211 10,000  Level Minneapolis Center
Mon 01:56:56 PM 44.5086 -87.5836 346° North 178 205 10,000 -48 Level Minneapolis Center
Mon 01:57:59 PM 44.5586 -87.6039 344° North 185 213 9,900 -48 Descending Minneapolis Center
Mon 01:59:01 PM 44.6058 -87.6225 344° North 180 207 9,900  Level Minneapolis Center
Mon 02:00:03 PM 44.6544 -87.6414 345° North 182 209 9,900  Level Minneapolis Center
Mon 02:01:05 PM 44.7006 -87.6600 344° North 176 203 9,900  Level Minneapolis Center
Mon 02:02:07 PM 44.7558 -87.6803 345° North 175 201 9,900  Level Minneapolis Center
Mon 02:03:09 PM 44.8039 -87.6992 344° North 178 205 9,900  Level Minneapolis Center
Mon 02:04:11 PM 44.8522 -87.7203 343° North 179 206 9,900  Level Minneapolis Center
Mon 02:05:13 PM 44.8992 -87.7386 345° North 178 205 9,900  Level Minneapolis Center
Mon 02:06:15 PM 44.9458 -87.7553 346° North 174 200 9,900 -48 Level Minneapolis Center
Mon 02:07:17 PM 45.0025 -87.7814 342° North 181 208 9,800 -242 Descending Minneapolis Center
Mon 02:08:19 PM 45.0528 -87.8033 343° North 186 214 9,400 -387 Descending Minneapolis Center
Mon 02:09:21 PM 45.1028 -87.8217 345° North 185 213 9,000 -624 Descending Minneapolis Center
Mon 02:10:24 PM 45.1553 -87.8431 344° North 195 224 8,100 -768 Descending Minneapolis Center
Mon 02:11:26 PM 45.2136 -87.8667 344° North 196 226 7,400 -629 Descending Minneapolis Center
Mon 02:12:28 PM 45.2639 -87.8861 345° North 189 217 6,800 -581 Descending Minneapolis Center
Mon 02:13:30 PM 45.3144 -87.9089 342° North 189 217 6,200 -581 Descending Minneapolis Center
Mon 02:14:32 PM 45.3631 -87.9278 345° North 183 211 5,600 -726 Descending Minneapolis Center
Mon 02:15:34 PM 45.4208 -87.9525 343° North 182 209 4,700 -629 Descending Minneapolis Center
Mon 02:16:36 PM 45.4692 -87.9700 346° North 181 208 4,300 -339 Descending Minneapolis Center
Mon 02:17:38 PM 45.5131 -87.9889 343° North 166 191 4,000 -336 Descending Minneapolis Center
Mon 02:18:41 PM 45.5611 -88.0092 344° North 170 196 3,600 -336 Descending Minneapolis Center
Mon 02:19:43 PM 45.6064 -88.0294 343° North 168 193 3,300 -242 Descending Minneapolis Center
Mon 02:20:45 PM 45.6514 -88.0478 344° North 159 183 3,100 -194 Descending Minneapolis Center
Mon 02:21:47 PM 45.6953 -88.0656 344° North 159 183 2,900 -242 Descending Minneapolis Center
Mon 02:22:49 PM 45.7361 -88.0861 341° North 156 180 2,600 -145 Descending Minneapolis Center
Mon 02:23:51 PM 45.7594 -88.1364 304° West 156 180 2,600  Level Minneapolis Center
Mon 02:25:00 PM 45.8123 -88.1168 North  Level Estimated
Mon 02:32:00 PM 45.8167 -88.1000 North  Level FlightAware Approximate

Login

Don't have an account? Register now (free) for customized features, flight alerts, and more!